createdAt,value
2023-03-23T15:58:51.845Z,19.91
2023-03-23T16:01:26.318Z,19.91
2023-03-23T16:04:03.186Z,19.93
2023-03-23T16:06:34.513Z,19.93
2023-03-23T16:09:03.672Z,19.92
2023-03-23T16:11:33.632Z,19.93
2023-03-23T16:14:02.133Z,19.92
2023-03-23T16:16:39.871Z,19.93
2023-03-23T16:19:12.215Z,19.92
2023-03-23T16:21:41.580Z,19.91
2023-03-23T16:24:10.532Z,19.92
2023-03-23T16:26:41.259Z,19.92
2023-03-23T16:29:28.411Z,19.91
2023-03-23T16:32:04.562Z,19.90
2023-03-23T16:34:34.552Z,19.90
2023-03-23T16:37:03.510Z,19.89
2023-03-23T16:39:31.918Z,19.95
2023-03-23T16:42:00.989Z,20.02
2023-03-23T16:44:29.562Z,20.08
2023-03-23T16:46:58.578Z,20.15
2023-03-23T16:49:27.220Z,20.12
2023-03-23T16:51:56.558Z,20.03
2023-03-23T16:54:24.990Z,19.92
2023-03-23T16:56:53.827Z,19.84
2023-03-23T16:59:22.310Z,19.79
2023-03-23T17:01:51.180Z,19.74
2023-03-23T17:04:19.798Z,19.72
2023-03-23T17:06:49.277Z,19.69
2023-03-23T17:09:17.841Z,19.69
2023-03-23T17:11:46.707Z,19.65
2023-03-23T17:14:15.148Z,19.64
2023-03-23T17:16:43.928Z,19.62
2023-03-23T17:19:14.565Z,19.60
2023-03-23T17:21:43.606Z,19.57
2023-03-23T17:24:12.043Z,19.58
2023-03-23T17:26:40.798Z,19.56
2023-03-23T17:29:09.366Z,19.54
2023-03-23T17:31:38.254Z,19.54
2023-03-23T17:34:06.809Z,19.54
2023-03-23T17:36:36.101Z,19.53
2023-03-23T17:39:04.662Z,19.53
2023-03-23T17:41:33.579Z,19.54
2023-03-23T17:44:02.094Z,19.54
2023-03-23T17:46:31.137Z,19.55
2023-03-23T17:48:59.638Z,19.54
2023-03-23T17:51:28.449Z,19.55
2023-03-23T17:53:57.650Z,19.54
2023-03-23T17:56:26.657Z,19.55
2023-03-23T17:58:55.263Z,19.52
2023-03-23T18:01:24.281Z,19.55
2023-03-23T18:03:52.981Z,19.53
2023-03-23T18:06:22.090Z,19.55
2023-03-23T18:08:50.578Z,19.54
2023-03-23T18:11:19.357Z,19.54
2023-03-23T18:13:47.910Z,19.54
2023-03-23T18:16:16.932Z,19.55
2023-03-23T18:18:47.349Z,19.55
2023-03-23T18:21:16.868Z,19.54
2023-03-23T18:23:56.621Z,19.54
2023-03-23T18:26:28.444Z,19.52
2023-03-23T18:28:57.053Z,19.53
2023-03-23T18:31:26.096Z,19.54
2023-03-23T18:33:55.548Z,19.53
2023-03-23T18:36:27.446Z,19.52
2023-03-23T18:38:57.019Z,19.53
2023-03-23T18:41:26.264Z,19.51
2023-03-23T18:43:56.264Z,19.51
2023-03-23T18:46:26.982Z,19.53
2023-03-23T18:48:55.630Z,19.51
2023-03-23T18:51:26.347Z,19.50
2023-03-23T18:53:54.948Z,19.50
2023-03-23T18:56:23.828Z,19.48
2023-03-23T18:58:53.488Z,19.48
2023-03-23T19:01:22.514Z,19.46
2023-03-23T19:03:51.061Z,19.47
2023-03-23T19:06:26.746Z,19.47
2023-03-23T19:08:55.289Z,19.46
2023-03-23T19:11:28.336Z,19.47
2023-03-23T19:14:02.423Z,19.46
2023-03-23T19:16:34.267Z,19.45
2023-03-23T19:19:03.412Z,19.45
2023-03-23T19:21:32.725Z,19.45
2023-03-23T19:24:02.102Z,19.45
2023-03-23T19:26:38.335Z,19.44
2023-03-23T19:31:40.194Z,19.46
2023-03-23T19:34:08.890Z,19.47
2023-03-23T19:36:37.891Z,19.46
2023-03-23T19:39:07.132Z,19.46
2023-03-23T19:41:36.545Z,19.48
2023-03-23T19:44:05.904Z,19.48
2023-03-23T19:46:34.769Z,19.49
2023-03-23T19:49:03.796Z,19.49
2023-03-23T19:51:33.011Z,19.49
2023-03-23T19:54:01.646Z,19.49
2023-03-23T19:56:30.687Z,19.49
2023-03-23T19:59:00.226Z,19.49
2023-03-23T20:01:30.075Z,19.49
2023-03-23T20:04:00.180Z,19.49
2023-03-23T20:06:29.841Z,19.48
2023-03-23T20:09:00.009Z,19.49
2023-03-23T20:11:29.989Z,19.50
2023-03-23T20:13:58.571Z,19.47
2023-03-23T20:16:27.574Z,19.50
2023-03-23T20:18:59.946Z,19.50
2023-03-23T20:21:29.614Z,19.49
2023-03-23T20:23:58.928Z,19.48
2023-03-23T20:26:35.715Z,19.47
2023-03-23T20:29:05.104Z,19.48
2023-03-23T20:31:37.321Z,19.48
2023-03-23T20:34:13.179Z,19.48
2023-03-23T20:36:45.606Z,19.47
2023-03-23T20:39:23.490Z,19.46
2023-03-23T20:41:54.797Z,19.47
2023-03-23T20:44:23.525Z,19.46
2023-03-23T20:46:53.099Z,19.46
2023-03-23T20:49:22.275Z,19.46
2023-03-23T20:51:52.453Z,19.46
2023-03-23T20:54:22.208Z,19.45
2023-03-23T20:56:52.849Z,19.45
2023-03-23T20:59:23.462Z,19.46
2023-03-23T21:01:52.396Z,19.44
2023-03-23T21:04:23.278Z,19.44
2023-03-23T21:06:52.156Z,19.44
2023-03-23T21:09:20.798Z,19.45
2023-03-23T21:11:49.972Z,19.45
2023-03-23T21:14:18.512Z,19.45
2023-03-23T21:16:47.576Z,19.44
2023-03-23T21:19:16.122Z,19.43
2023-03-23T21:21:56.285Z,19.42
2023-03-23T21:24:30.443Z,19.44
2023-03-23T21:27:01.211Z,19.45
2023-03-23T21:29:31.014Z,19.44
2023-03-23T21:34:31.140Z,19.44
2023-03-23T21:36:59.990Z,19.41
2023-03-23T21:39:28.736Z,19.39
2023-03-23T21:41:59.587Z,19.40
2023-03-23T21:44:28.162Z,19.38
2023-03-23T21:46:56.952Z,19.36
2023-03-23T21:49:25.415Z,19.36
2023-03-23T21:51:54.352Z,19.36
2023-03-23T21:54:22.871Z,19.34
2023-03-23T21:56:52.500Z,19.33
2023-03-23T21:59:20.989Z,19.33
2023-03-23T22:01:50.560Z,19.33
2023-03-23T22:04:20.679Z,19.32
2023-03-23T22:06:49.837Z,19.32
2023-03-23T22:09:18.349Z,19.32
2023-03-23T22:11:47.114Z,19.32
2023-03-23T22:14:15.621Z,19.32
2023-03-23T22:16:44.733Z,19.32
2023-03-23T22:19:13.229Z,19.32
2023-03-23T22:21:42.128Z,19.32
2023-03-23T22:24:10.680Z,19.32
2023-03-23T22:26:39.758Z,19.31
2023-03-23T22:29:11.330Z,19.32
2023-03-23T22:31:40.604Z,19.30
2023-03-23T22:34:09.294Z,19.29
2023-03-23T22:36:39.228Z,19.29
2023-03-23T22:39:08.523Z,19.28
2023-03-23T22:41:41.122Z,19.27
2023-03-23T22:44:14.083Z,19.25
2023-03-23T22:46:44.108Z,19.26
2023-03-23T22:49:12.717Z,19.26
2023-03-23T22:51:41.878Z,19.24
2023-03-23T22:54:10.967Z,19.25
2023-03-23T22:56:39.889Z,19.24
2023-03-23T22:59:08.651Z,19.24
2023-03-23T23:01:37.641Z,19.21
2023-03-23T23:04:06.739Z,19.23
2023-03-23T23:06:35.958Z,19.25
2023-03-23T23:09:05.035Z,19.24
2023-03-23T23:11:34.218Z,19.23
2023-03-23T23:14:03.248Z,19.22
2023-03-23T23:16:32.253Z,19.21
2023-03-23T23:19:00.883Z,19.21
2023-03-23T23:21:29.817Z,19.22
2023-03-23T23:23:58.481Z,19.22
2023-03-23T23:26:27.748Z,19.21
2023-03-23T23:28:56.566Z,19.21
2023-03-23T23:31:31.816Z,19.21
2023-03-23T23:34:01.425Z,19.20
2023-03-23T23:36:32.098Z,19.20
2023-03-23T23:39:01.284Z,19.21
2023-03-23T23:41:31.074Z,19.20
2023-03-23T23:43:59.964Z,19.20
2023-03-23T23:46:30.926Z,19.18
2023-03-23T23:49:01.179Z,19.18
2023-03-23T23:51:30.512Z,19.18
2023-03-23T23:54:01.922Z,19.18
2023-03-23T23:56:30.889Z,19.18
2023-03-23T23:58:59.414Z,19.19
